Time;durP1;ratioP1;P1;durP2;ratioP2;P2;SDS_P1;SDS_P2;PMS_P1;PMS_P2;Temp;Humidity;BMP_temperature;BMP_pressure;BME280_temperature;BME280_humidity;BME280_pressure;Samples;Min_cycle;Max_cycle;Signal;HPM_P1;HPM_P2
2023/07/18 00:01:42;;;;;;;2.30;1.60;;;28.40;45.70;;;;;;4979970;28;20120;-67
2023/07/18 00:04:07;;;;;;;2.30;1.60;;;28.40;45.70;;;;;;4981389;28;20088;-67
2023/07/18 00:06:33;;;;;;;1.98;1.50;;;28.40;45.80;;;;;;4981020;28;20069;-66
2023/07/18 00:08:59;;;;;;;2.33;1.63;;;28.30;45.70;;;;;;4981788;28;20406;-67
2023/07/18 00:11:25;;;;;;;2.08;1.55;;;28.30;45.70;;;;;;4981955;28;20033;-68
2023/07/18 00:13:50;;;;;;;2.42;1.65;;;28.30;45.70;;;;;;4979671;28;20505;-67
2023/07/18 00:16:16;;;;;;;2.58;1.65;;;28.30;45.70;;;;;;4963053;28;20546;-67
2023/07/18 00:18:42;;;;;;;2.70;1.80;;;28.30;45.80;;;;;;4978975;28;20132;-67
2023/07/18 00:21:07;;;;;;;2.30;1.50;;;28.30;46.30;;;;;;4981108;28;20027;-67
2023/07/18 00:23:34;;;;;;;2.30;1.67;;;28.30;45.80;;;;;;4964043;28;20157;-67
2023/07/18 00:25:59;;;;;;;2.05;1.58;;;28.30;45.80;;;;;;4980940;28;20508;-67
2023/07/18 00:28:25;;;;;;;2.20;1.60;;;28.30;45.80;;;;;;4980912;28;20034;-67
2023/07/18 00:30:51;;;;;;;2.20;1.70;;;28.30;45.90;;;;;;4981611;28;20037;-68
2023/07/18 00:33:16;;;;;;;2.20;1.60;;;28.20;45.80;;;;;;4979944;28;20023;-68
2023/07/18 00:35:43;;;;;;;1.60;1.23;;;28.30;45.90;;;;;;4980374;28;20034;-67
2023/07/18 00:38:11;;;;;;;1.90;1.40;;;28.30;45.90;;;;;;4972220;28;20042;-67
2023/07/18 00:40:40;;;;;;;2.30;1.70;;;28.30;45.90;;;;;;4978087;28;20027;-67
2023/07/18 00:43:13;;;;;;;1.77;1.38;;;28.30;45.90;;;;;;4978298;28;20285;-68
2023/07/18 00:45:40;;;;;;;1.90;1.38;;;28.30;45.90;;;;;;4978257;28;20026;-67
2023/07/18 00:48:07;;;;;;;1.98;1.52;;;28.30;46.00;;;;;;4960481;28;20078;-68
2023/07/18 00:50:33;;;;;;;1.90;1.50;;;28.20;45.90;;;;;;4981990;28;20462;-68
2023/07/18 00:53:00;;;;;;;2.33;1.60;;;28.20;45.90;;;;;;4980980;28;20364;-68
2023/07/18 00:55:27;;;;;;;2.30;1.50;;;28.20;46.00;;;;;;4981583;28;20090;-68
2023/07/18 00:57:54;;;;;;;2.33;1.70;;;28.20;46.00;;;;;;4980127;28;20038;-68
2023/07/18 01:00:22;;;;;;;2.20;1.42;;;28.20;46.00;;;;;;4964833;28;20072;-68
2023/07/18 01:02:49;;;;;;;2.17;1.65;;;28.20;46.00;;;;;;4980543;28;20019;-68
2023/07/18 01:05:17;;;;;;;1.73;1.30;;;28.20;46.00;;;;;;4980493;28;20041;-68
2023/07/18 01:07:43;;;;;;;2.17;1.50;;;28.20;46.00;;;;;;4982296;28;20478;-67
2023/07/18 01:10:23;;;;;;;2.33;1.58;;;28.20;46.10;;;;;;4978748;28;20058;-68
2023/07/18 01:12:59;;;;;;;1.70;1.30;;;28.20;46.10;;;;;;4979208;28;20050;-68
2023/07/18 01:15:29;;;;;;;2.10;1.60;;;28.20;46.10;;;;;;4979939;28;20041;-68
2023/07/18 01:17:55;;;;;;;2.13;1.50;;;28.20;46.10;;;;;;4978199;28;20035;-68
2023/07/18 01:20:29;;;;;;;2.13;1.60;;;28.20;46.10;;;;;;4978446;28;20069;-69
2023/07/18 01:23:00;;;;;;;1.90;1.48;;;28.20;46.10;;;;;;4979277;28;20027;-68
2023/07/18 01:25:26;;;;;;;2.10;1.42;;;28.20;46.10;;;;;;4981906;28;20106;-68
2023/07/18 01:27:56;;;;;;;2.42;1.60;;;28.20;46.20;;;;;;4978564;28;20413;-68
2023/07/18 01:30:27;;;;;;;1.90;1.50;;;28.10;46.10;;;;;;4980333;28;20145;-69
2023/07/18 01:32:53;;;;;;;2.13;1.55;;;28.10;46.10;;;;;;4978135;28;20034;-68
2023/07/18 01:35:23;;;;;;;1.95;1.60;;;28.20;46.20;;;;;;4979373;28;20030;-68
2023/07/18 01:37:49;;;;;;;1.80;1.40;;;28.20;46.20;;;;;;4979141;28;20150;-69
2023/07/18 01:40:19;;;;;;;2.17;1.60;;;28.20;46.20;;;;;;4981735;28;20039;-68
2023/07/18 01:42:52;;;;;;;1.80;1.40;;;28.10;46.10;;;;;;4965598;28;20061;-68
2023/07/18 01:45:19;;;;;;;2.42;1.50;;;28.10;46.20;;;;;;4979595;28;20439;-68
2023/07/18 01:47:45;;;;;;;1.88;1.35;;;28.10;46.10;;;;;;4976694;28;20606;-68
2023/07/18 01:50:11;;;;;;;2.17;1.63;;;28.10;46.20;;;;;;4959967;28;20506;-68
2023/07/18 01:52:37;;;;;;;2.13;1.60;;;28.10;46.20;;;;;;4980314;28;20030;-68
2023/07/18 01:55:04;;;;;;;2.30;1.60;;;28.10;46.20;;;;;;4978734;28;20510;-68
2023/07/18 01:57:50;;;;;;;2.35;1.77;;;28.10;46.20;;;;;;4978918;28;20360;-68
2023/07/18 02:00:21;;;;;;;2.30;1.48;;;28.10;46.20;;;;;;4977718;28;20415;-68
2023/07/18 02:02:49;;;;;;;2.55;1.70;;;28.10;46.20;;;;;;4976881;28;20031;-68
2023/07/18 02:05:20;;;;;;;2.05;1.48;;;28.10;46.20;;;;;;4978861;28;20027;-68
2023/07/18 02:07:46;;;;;;;1.92;1.40;;;28.10;46.20;;;;;;4979259;28;20037;-68
2023/07/18 02:10:13;;;;;;;1.90;1.35;;;28.10;46.20;;;;;;4980852;28;20494;-68
2023/07/18 02:12:39;;;;;;;2.00;1.40;;;28.10;46.20;;;;;;4978856;28;20041;-68
2023/07/18 02:15:05;;;;;;;2.50;1.70;;;28.10;46.20;;;;;;4978546;28;20030;-68
2023/07/18 02:17:32;;;;;;;1.70;1.30;;;28.10;46.20;;;;;;4979460;28;20231;-68
2023/07/18 02:19:58;;;;;;;2.00;1.50;;;28.00;46.20;;;;;;4959869;28;20034;-68
2023/07/18 02:22:24;;;;;;;2.03;1.40;;;28.10;46.30;;;;;;4962820;28;20555;-68
2023/07/18 02:24:49;;;;;;;1.70;1.30;;;28.10;46.30;;;;;;4981569;28;20410;-68
2023/07/18 02:27:15;;;;;;;2.13;1.60;;;28.00;46.20;;;;;;4979050;28;20031;-68
2023/07/18 02:29:40;;;;;;;1.55;1.35;;;28.10;46.30;;;;;;4963581;28;20061;-68
2023/07/18 02:32:06;;;;;;;1.90;1.45;;;28.00;46.30;;;;;;4979481;28;20598;-68
2023/07/18 02:34:33;;;;;;;1.90;1.40;;;28.00;46.30;;;;;;4976553;28;20039;-68
2023/07/18 02:36:58;;;;;;;1.90;1.45;;;28.00;46.30;;;;;;4977987;28;20027;-68
2023/07/18 02:39:24;;;;;;;1.95;1.40;;;28.00;46.30;;;;;;4978704;28;20030;-68
2023/07/18 02:41:49;;;;;;;2.13;1.58;;;28.00;46.30;;;;;;4978358;28;20034;-68
2023/07/18 02:44:15;;;;;;;1.73;1.30;;;28.00;46.30;;;;;;4978100;28;20113;-68
2023/07/18 02:46:41;;;;;;;1.77;1.40;;;28.00;46.30;;;;;;4963746;28;20029;-68
2023/07/18 02:49:06;;;;;;;1.80;1.33;;;28.00;46.30;;;;;;4968009;28;20459;-68
2023/07/18 02:51:33;;;;;;;1.88;1.48;;;28.00;46.30;;;;;;4977772;28;20554;-68
2023/07/18 02:53:58;;;;;;;1.80;1.40;;;28.00;46.40;;;;;;4979000;28;20022;-68
2023/07/18 02:56:24;;;;;;;1.80;1.40;;;28.00;46.30;;;;;;4979776;28;20122;-68
2023/07/18 02:58:50;;;;;;;1.80;1.30;;;27.90;46.30;;;;;;4978644;28;20034;-69
2023/07/18 03:01:19;;;;;;;1.83;1.30;;;27.90;46.30;;;;;;4960898;28;20034;-68
2023/07/18 03:03:45;;;;;;;;;;;27.90;46.30;;;;;;4981062;28;20022;-68
2023/07/18 03:06:11;;;;;;;1.67;1.30;;;27.90;46.30;;;;;;4981858;28;19960;-69
2023/07/18 03:08:37;;;;;;;1.83;1.30;;;27.90;46.30;;;;;;4981434;28;20053;-69
2023/07/18 03:11:06;;;;;;;1.88;1.30;;;27.90;46.30;;;;;;4983934;28;20485;-68
2023/07/18 03:13:32;;;;;;;1.80;1.17;;;27.90;46.40;;;;;;4981783;28;20085;-68
2023/07/18 03:15:57;;;;;;;1.92;1.40;;;27.90;46.40;;;;;;4982699;28;20038;-68
2023/07/18 03:18:23;;;;;;;1.77;1.20;;;27.90;46.40;;;;;;4979832;28;20474;-68
2023/07/18 03:20:49;;;;;;;1.45;1.20;;;27.90;46.40;;;;;;4970768;28;20549;-68
2023/07/18 03:23:15;;;;;;;2.15;1.45;;;27.90;46.40;;;;;;4982343;28;20030;-68
2023/07/18 03:25:41;;;;;;;2.00;1.20;;;27.90;46.40;;;;;;4981802;28;20030;-67
2023/07/18 03:28:09;;;;;;;1.50;1.25;;;27.90;46.40;;;;;;4983661;28;20030;-68
2023/07/18 03:30:36;;;;;;;1.88;1.35;;;27.90;46.40;;;;;;4982353;28;20034;-68
2023/07/18 03:33:01;;;;;;;2.13;1.25;;;27.90;46.40;;;;;;4966306;28;20038;-68
2023/07/18 03:35:28;;;;;;;1.70;1.30;;;27.90;46.40;;;;;;4960352;28;20390;-68
2023/07/18 03:37:53;;;;;;;1.75;1.40;;;27.90;46.40;;;;;;4980450;28;20026;-67
2023/07/18 03:40:19;;;;;;;2.20;1.40;;;27.80;46.40;;;;;;4983714;28;20101;-68
2023/07/18 03:42:45;;;;;;;1.60;1.30;;;27.80;46.40;;;;;;4982799;28;20026;-68
2023/07/18 03:45:13;;;;;;;1.92;1.30;;;27.80;46.40;;;;;;4983005;28;20547;-68
2023/07/18 03:47:39;;;;;;;1.70;1.30;;;27.80;46.40;;;;;;4970115;28;20034;-69
2023/07/18 03:50:05;;;;;;;1.65;1.20;;;27.80;46.40;;;;;;4963764;28;20097;-69
2023/07/18 03:52:31;;;;;;;1.65;1.25;;;27.80;46.40;;;;;;4982744;28;20080;-68
2023/07/18 03:54:57;;;;;;;2.08;1.40;;;27.80;46.40;;;;;;4981172;28;20026;-68
2023/07/18 03:57:22;;;;;;;2.40;1.45;;;27.80;46.40;;;;;;4982059;28;20049;-68
2023/07/18 03:59:48;;;;;;;2.15;1.60;;;27.80;45.30;;;;;;4981625;28;20497;-67
2023/07/18 04:02:17;;;;;;;2.45;1.60;;;27.80;43.80;;;;;;4981544;28;20046;-68
2023/07/18 04:04:42;;;;;;;3.03;1.60;;;27.80;42.60;;;;;;4981497;28;20033;-68
2023/07/18 04:07:08;;;;;;;2.42;1.60;;;27.80;42.00;;;;;;4980807;28;20026;-68
2023/07/18 04:09:34;;;;;;;2.78;1.70;;;27.80;41.60;;;;;;4983363;28;20105;-68
2023/07/18 04:12:00;;;;;;;3.45;1.50;;;27.70;41.20;;;;;;4980384;28;20026;-68
2023/07/18 04:14:26;;;;;;;4.03;1.98;;;27.70;41.20;;;;;;4982685;28;20031;-68
2023/07/18 04:16:52;;;;;;;2.22;1.52;;;27.70;41.10;;;;;;4965177;28;20038;-68
2023/07/18 04:19:18;;;;;;;2.40;1.40;;;27.60;41.10;;;;;;4963656;28;20505;-68
2023/07/18 04:21:44;;;;;;;1.70;1.30;;;27.60;41.20;;;;;;4981823;28;20030;-68
2023/07/18 04:24:10;;;;;;;2.55;1.50;;;27.60;41.30;;;;;;4975700;28;20228;-68
2023/07/18 04:26:36;;;;;;;3.03;1.75;;;27.50;41.30;;;;;;4965788;28;20035;-68
2023/07/18 04:29:03;;;;;;;4.45;1.50;;;27.50;41.10;;;;;;4980994;28;20118;-68
2023/07/18 04:31:29;;;;;;;3.40;1.40;;;27.50;41.00;;;;;;4979294;28;20343;-69
2023/07/18 04:33:55;;;;;;;2.75;1.60;;;27.50;41.00;;;;;;4979804;28;20482;-67
2023/07/18 04:36:20;;;;;;;3.42;1.80;;;27.40;41.00;;;;;;4977866;28;20022;-68
2023/07/18 04:38:46;;;;;;;2.80;1.60;;;27.40;40.90;;;;;;4965665;28;20031;-68
2023/07/18 04:41:11;;;;;;;2.75;1.58;;;27.40;40.80;;;;;;4979450;28;20467;-67
2023/07/18 04:43:37;;;;;;;2.53;1.40;;;27.30;40.70;;;;;;4982039;28;20121;-67
2023/07/18 04:46:04;;;;;;;2.65;1.42;;;27.30;40.90;;;;;;4966416;28;20038;-67
2023/07/18 04:48:30;;;;;;;2.38;1.45;;;27.30;41.00;;;;;;4979778;28;20031;-67
2023/07/18 04:51:00;;;;;;;3.22;1.52;;;27.20;41.10;;;;;;4978149;28;20022;-68
2023/07/18 04:53:27;;;;;;;3.75;1.65;;;27.20;41.20;;;;;;4980386;28;20105;-67
2023/07/18 04:55:55;;;;;;;3.28;1.60;;;27.20;41.40;;;;;;4981617;28;20525;-67
2023/07/18 04:58:22;;;;;;;2.72;1.70;;;27.20;41.50;;;;;;4967004;28;20113;-67
2023/07/18 05:00:47;;;;;;;4.45;1.70;;;27.10;41.30;;;;;;4964257;28;20026;-67
2023/07/18 05:03:13;;;;;;;2.65;1.52;;;27.10;41.30;;;;;;4982105;28;20103;-67
2023/07/18 05:05:39;;;;;;;2.22;1.30;;;27.10;41.30;;;;;;4978815;28;20037;-67
2023/07/18 05:08:05;;;;;;;2.40;1.40;;;27.10;41.40;;;;;;4978778;28;20061;-67
2023/07/18 05:10:31;;;;;;;2.28;1.50;;;27.00;41.30;;;;;;4981936;28;20379;-67
2023/07/18 05:12:57;;;;;;;2.47;1.50;;;27.00;41.40;;;;;;4980059;28;20034;-67
2023/07/18 05:15:23;;;;;;;2.83;1.45;;;27.00;41.50;;;;;;4977775;28;20910;-68
2023/07/18 05:17:49;;;;;;;4.82;1.60;;;27.00;41.60;;;;;;4979054;28;20491;-67
2023/07/18 05:20:15;;;;;;;3.03;1.60;;;26.90;42.00;;;;;;4978753;28;20034;-67
2023/07/18 05:22:43;;;;;;;2.85;1.52;;;26.90;41.70;;;;;;4980542;28;20039;-67
2023/07/18 05:25:10;;;;;;;2.60;1.50;;;26.90;41.90;;;;;;4978752;28;20470;-68
2023/07/18 05:27:36;;;;;;;2.60;1.70;;;26.90;42.30;;;;;;4971143;28;20053;-68
2023/07/18 05:30:06;;;;;;;2.38;1.60;;;26.90;42.90;;;;;;4978392;28;20066;-68
2023/07/18 05:32:32;;;;;;;2.92;1.25;;;26.90;42.50;;;;;;4981286;28;20185;-67
2023/07/18 05:34:59;;;;;;;3.53;1.50;;;26.90;42.60;;;;;;4976423;28;20105;-68
2023/07/18 05:37:25;;;;;;;3.45;1.63;;;26.80;42.60;;;;;;4982867;28;20027;-67
2023/07/18 05:39:51;;;;;;;3.13;1.60;;;26.80;42.80;;;;;;4980779;28;20089;-68
2023/07/18 05:42:17;;;;;;;3.35;1.75;;;26.80;42.80;;;;;;4964335;28;20062;-68
2023/07/18 05:44:44;;;;;;;2.35;1.35;;;26.80;42.90;;;;;;4978538;28;20482;-68
2023/07/18 05:47:09;;;;;;;2.47;1.35;;;26.80;43.10;;;;;;4964528;28;20031;-67
2023/07/18 05:49:35;;;;;;;3.20;1.45;;;26.80;43.10;;;;;;4978018;28;20486;-68
2023/07/18 05:52:01;;;;;;;2.78;1.40;;;26.80;43.20;;;;;;4981505;28;20034;-68
2023/07/18 05:54:28;;;;;;;2.15;1.30;;;26.80;43.20;;;;;;4978419;28;20038;-68
2023/07/18 05:56:54;;;;;;;2.35;1.38;;;26.80;43.30;;;;;;4970095;28;20037;-68
2023/07/18 05:59:20;;;;;;;3.30;1.50;;;26.80;43.40;;;;;;4961929;28;20030;-68
2023/07/18 06:01:45;;;;;;;1.80;1.27;;;26.80;43.40;;;;;;4978478;28;20441;-67
2023/07/18 06:04:11;;;;;;;2.70;1.35;;;26.80;43.50;;;;;;4963213;28;20114;-67
2023/07/18 06:06:38;;;;;;;2.60;1.50;;;26.80;43.50;;;;;;4977719;28;20029;-67
2023/07/18 06:09:03;;;;;;;2.10;1.40;;;26.80;43.60;;;;;;4979612;28;20499;-67
2023/07/18 06:11:29;;;;;;;2.30;1.30;;;26.80;43.70;;;;;;4979923;28;20085;-68
2023/07/18 06:13:55;;;;;;;2.35;1.40;;;26.80;43.70;;;;;;4980126;28;20066;-67
2023/07/18 06:16:20;;;;;;;2.92;1.50;;;26.80;43.70;;;;;;4979174;28;20030;-67
2023/07/18 06:18:46;;;;;;;3.17;1.40;;;26.80;43.80;;;;;;4978494;28;20030;-67
2023/07/18 06:21:11;;;;;;;2.35;1.42;;;26.80;43.80;;;;;;4979189;28;20501;-67
2023/07/18 06:23:37;;;;;;;1.90;1.23;;;26.80;43.80;;;;;;4978712;28;20475;-67
2023/07/18 06:26:04;;;;;;;2.00;1.33;;;26.80;43.90;;;;;;4962710;28;20114;-68
2023/07/18 06:28:30;;;;;;;2.55;1.40;;;26.80;43.90;;;;;;4979759;28;20027;-67
2023/07/18 06:30:57;;;;;;;2.58;1.40;;;26.80;44.50;;;;;;4960650;28;20073;-67
2023/07/18 06:33:23;;;;;;;2.25;1.30;;;26.80;44.00;;;;;;4962932;28;20061;-67
2023/07/18 06:35:56;;;;;;;2.55;1.50;;;26.80;44.00;;;;;;4959859;28;20483;-67
2023/07/18 06:38:22;;;;;;;2.42;1.40;;;26.80;44.10;;;;;;4978926;28;20031;-67
2023/07/18 06:40:49;;;;;;;2.38;1.38;;;26.80;44.10;;;;;;4979380;28;20554;-67
2023/07/18 06:43:16;;;;;;;2.58;1.50;;;26.80;44.20;;;;;;4977582;28;20049;-67
2023/07/18 06:45:46;;;;;;;3.30;1.60;;;26.80;44.20;;;;;;4979531;28;20045;-67
2023/07/18 06:48:15;;;;;;;3.10;1.70;;;26.80;44.20;;;;;;4979893;28;20209;-67
2023/07/18 06:50:51;;;;;;;2.60;1.60;;;26.80;44.20;;;;;;4975361;28;20030;-67
2023/07/18 06:53:19;;;;;;;2.70;1.45;;;26.80;44.30;;;;;;4978236;28;20038;-67
2023/07/18 06:55:46;;;;;;;2.45;1.40;;;26.80;44.30;;;;;;4978111;28;20042;-68
2023/07/18 06:58:12;;;;;;;2.28;1.25;;;26.80;44.30;;;;;;4979037;28;20495;-68
2023/07/18 07:00:39;;;;;;;2.30;1.40;;;26.80;44.40;;;;;;4977896;28;20483;-68
2023/07/18 07:03:04;;;;;;;2.42;1.40;;;26.80;44.40;;;;;;4978503;28;20096;-67
2023/07/18 07:05:30;;;;;;;2.92;1.60;;;26.80;44.40;;;;;;4975616;28;20458;-67
2023/07/18 07:07:56;;;;;;;2.67;1.50;;;26.80;44.50;;;;;;4976782;28;20486;-67
2023/07/18 07:10:21;;;;;;;2.22;1.30;;;26.80;44.50;;;;;;4978342;28;20059;-67
2023/07/18 07:12:47;;;;;;;2.35;1.40;;;26.80;44.50;;;;;;4981649;28;20133;-67
2023/07/18 07:15:13;;;;;;;2.17;1.40;;;26.80;44.60;;;;;;4979215;28;20031;-67
2023/07/18 07:17:39;;;;;;;2.17;1.55;;;26.80;44.60;;;;;;4974165;28;20914;-66
2023/07/18 07:20:14;;;;;;;2.38;1.50;;;26.80;44.60;;;;;;4977719;28;20023;-67
2023/07/18 07:22:43;;;;;;;2.65;1.40;;;26.80;44.60;;;;;;4977945;28;20054;-67
2023/07/18 07:25:13;;;;;;;2.90;1.25;;;26.80;44.60;;;;;;4977763;28;20019;-67
2023/07/18 07:27:39;;;;;;;2.20;1.33;;;26.80;44.70;;;;;;4978164;28;20455;-67
2023/07/18 07:30:05;;;;;;;2.33;1.30;;;26.80;44.70;;;;;;4978216;28;20053;-67
2023/07/18 07:32:31;;;;;;;2.20;1.40;;;26.80;44.70;;;;;;4979074;28;20026;-67
2023/07/18 07:34:57;;;;;;;2.28;1.45;;;26.80;44.80;;;;;;4978278;28;20582;-67
2023/07/18 07:37:23;;;;;;;2.60;1.58;;;26.80;44.80;;;;;;4977316;28;20541;-67
2023/07/18 07:39:49;;;;;;;2.70;1.52;;;26.80;44.80;;;;;;4978964;28;20027;-67
2023/07/18 07:42:15;;;;;;;2.47;1.50;;;26.70;44.80;;;;;;4980456;28;20023;-67
2023/07/18 07:44:40;;;;;;;3.30;1.58;;;26.80;44.90;;;;;;4976588;28;20082;-67
2023/07/18 07:47:06;;;;;;;2.20;1.30;;;26.80;44.90;;;;;;4977432;28;20506;-67
2023/07/18 07:49:31;;;;;;;2.33;1.50;;;26.80;44.90;;;;;;4982581;28;20045;-67
2023/07/18 07:51:57;;;;;;;1.92;1.40;;;26.80;45.00;;;;;;4982966;28;20026;-67
2023/07/18 07:54:23;;;;;;;2.50;1.50;;;26.80;45.00;;;;;;4964388;28;20454;-67
2023/07/18 07:56:48;;;;;;;2.33;1.55;;;26.70;44.90;;;;;;4981734;28;20026;-67
2023/07/18 07:59:14;;;;;;;2.17;1.48;;;26.80;45.00;;;;;;4979283;28;20030;-67
2023/07/18 08:01:40;;;;;;;2.22;1.40;;;26.80;45.00;;;;;;4980403;28;20029;-67
2023/07/18 08:04:07;;;;;;;2.10;1.52;;;26.70;45.00;;;;;;4964843;28;20026;-67
2023/07/18 08:06:32;;;;;;;2.35;1.38;;;26.70;45.00;;;;;;4980972;28;20113;-67
2023/07/18 08:08:58;;;;;;;2.28;1.40;;;26.70;45.10;;;;;;4980894;28;20113;-67
2023/07/18 08:11:24;;;;;;;3.40;1.60;;;26.70;45.10;;;;;;4981359;28;20561;-67
2023/07/18 08:13:50;;;;;;;2.13;1.40;;;26.80;45.20;;;;;;4981315;28;20177;-67
2023/07/18 08:16:16;;;;;;;2.83;1.67;;;26.70;45.10;;;;;;4981394;28;20023;-67
2023/07/18 08:18:41;;;;;;;2.53;1.45;;;26.80;45.20;;;;;;4982719;28;20041;-67
2023/07/18 08:21:07;;;;;;;2.15;1.40;;;26.70;45.20;;;;;;4977593;28;20129;-67
2023/07/18 08:23:32;;;;;;;2.45;1.50;;;26.70;45.20;;;;;;4981990;28;20523;-67
2023/07/18 08:25:58;;;;;;;2.40;1.40;;;26.70;45.20;;;;;;4965960;28;20027;-67
2023/07/18 08:28:24;;;;;;;2.53;1.40;;;26.70;45.20;;;;;;4965750;28;20035;-67
2023/07/18 08:30:49;;;;;;;2.17;1.50;;;26.70;45.20;;;;;;4981157;28;20498;-67
2023/07/18 08:33:19;;;;;;;2.33;1.38;;;26.70;45.30;;;;;;4981039;28;20148;-67
2023/07/18 08:35:45;;;;;;;2.25;1.50;;;26.70;45.30;;;;;;4979472;28;20058;-67
2023/07/18 08:38:11;;;;;;;2.95;1.67;;;26.70;45.30;;;;;;4978993;28;20515;-67
2023/07/18 08:40:42;;;;;;;2.25;1.50;;;26.80;45.40;;;;;;4979798;28;20085;-67
2023/07/18 08:43:13;;;;;;;2.53;1.50;;;26.70;45.40;;;;;;4970453;28;20583;-67
2023/07/18 08:45:39;;;;;;;2.58;1.40;;;26.70;45.40;;;;;;4965659;28;20391;-67
2023/07/18 08:48:05;;;;;;;2.60;1.60;;;26.70;45.40;;;;;;4980488;28;20027;-67
2023/07/18 08:50:32;;;;;;;2.38;1.40;;;26.70;45.40;;;;;;4977494;28;20039;-67
2023/07/18 08:52:58;;;;;;;2.45;1.45;;;26.70;45.40;;;;;;4981273;28;20114;-67
2023/07/18 08:55:26;;;;;;;2.28;1.40;;;26.70;45.50;;;;;;4966329;28;20109;-67
2023/07/18 08:57:54;;;;;;;2.40;1.40;;;26.70;45.50;;;;;;4982379;28;20031;-67
2023/07/18 09:00:20;;;;;;;1.95;1.25;;;26.70;45.50;;;;;;4979585;28;20037;-67
2023/07/18 09:02:49;;;;;;;2.53;1.40;;;26.70;45.50;;;;;;4972059;28;20022;-67
2023/07/18 09:05:32;;;;;;;2.05;1.15;;;26.70;45.50;;;;;;4979336;28;20343;-67
2023/07/18 09:07:59;;;;;;;2.58;1.33;;;26.70;45.60;;;;;;4978172;28;20159;-67
2023/07/18 09:10:25;;;;;;;2.60;1.38;;;26.70;45.60;;;;;;4963928;28;20438;-67
2023/07/18 09:12:51;;;;;;;2.03;1.20;;;26.70;45.60;;;;;;4981732;28;20019;-67
2023/07/18 09:15:19;;;;;;;1.88;1.50;;;26.70;45.60;;;;;;4979685;28;20163;-67
2023/07/18 09:17:52;;;;;;;2.33;1.40;;;26.70;45.60;;;;;;4980025;28;20084;-67
2023/07/18 09:20:18;;;;;;;2.30;1.30;;;26.70;45.60;;;;;;4978992;28;20383;-66
2023/07/18 09:22:44;;;;;;;1.90;1.33;;;26.70;45.60;;;;;;4978946;28;20030;-67
2023/07/18 09:25:14;;;;;;;2.42;1.40;;;26.70;45.60;;;;;;4979868;28;20019;-67
2023/07/18 09:27:39;;;;;;;2.70;1.42;;;26.70;45.60;;;;;;4980485;28;20045;-67
2023/07/18 09:30:06;;;;;;;2.30;1.50;;;26.70;45.70;;;;;;4978852;28;20117;-67
2023/07/18 09:32:32;;;;;;;1.75;1.20;;;26.70;45.60;;;;;;4979115;28;20114;-67
2023/07/18 09:34:59;;;;;;;2.10;1.33;;;26.70;45.70;;;;;;4962818;28;20037;-67
2023/07/18 09:37:25;;;;;;;2.22;1.40;;;26.80;45.70;;;;;;4976711;28;20022;-67
2023/07/18 09:39:51;;;;;;;2.30;1.40;;;26.80;45.70;;;;;;4980121;28;20348;-66
2023/07/18 09:42:18;;;;;;;2.28;1.45;;;26.70;45.70;;;;;;4979935;28;20026;-66
2023/07/18 09:44:48;;;;;;;2.00;1.38;;;26.80;45.80;;;;;;4976489;28;20084;-67
2023/07/18 09:47:14;;;;;;;1.73;1.20;;;26.80;45.80;;;;;;4980148;28;20117;-66
2023/07/18 09:49:42;;;;;;;2.22;1.30;;;26.70;46.30;;;;;;4980331;28;20022;-67
2023/07/18 09:52:09;;;;;;;2.17;1.40;;;26.80;45.80;;;;;;4977845;28;20033;-67
2023/07/18 09:54:35;;;;;;;2.53;1.60;;;26.80;45.90;;;;;;4980783;28;20030;-67
2023/07/18 09:57:09;;;;;;;2.47;1.40;;;26.80;45.90;;;;;;4980320;28;20026;-67
2023/07/18 09:59:39;;;;;;;1.50;1.20;;;26.70;45.80;;;;;;4978571;28;20031;-66
2023/07/18 10:02:10;;;;;;;2.20;1.40;;;26.80;45.90;;;;;;4978478;28;20431;-67
2023/07/18 10:04:36;;;;;;;2.10;1.17;;;26.80;45.90;;;;;;4980070;28;20027;-67
2023/07/18 10:07:03;;;;;;;1.85;1.20;;;26.80;45.90;;;;;;4978112;28;20039;-67
2023/07/18 10:09:31;;;;;;;1.92;1.27;;;26.80;45.90;;;;;;4979863;28;20117;-67
2023/07/18 10:12:03;;;;;;;2.03;1.27;;;26.80;45.90;;;;;;4976569;28;20452;-67
2023/07/18 10:14:52;;;;;;;2.20;1.25;;;26.80;45.90;;;;;;4980451;28;20082;-67
2023/07/18 10:17:35;;;;;;;1.63;1.10;;;26.80;46.00;;;;;;4979252;28;20428;-66
2023/07/18 10:20:13;;;;;;;2.10;1.23;;;26.80;45.90;;;;;;4969083;28;20026;-66
2023/07/18 10:22:48;;;;;;;1.42;1.20;;;26.80;46.00;;;;;;4979542;28;20419;-67
2023/07/18 10:25:16;;;;;;;2.20;1.50;;;26.80;46.00;;;;;;4979070;28;20321;-67
2023/07/18 10:27:43;;;;;;;2.25;1.42;;;26.80;46.00;;;;;;4959637;28;20117;-66
2023/07/18 10:30:11;;;;;;;1.90;1.30;;;26.80;46.00;;;;;;4969094;28;20045;-67
2023/07/18 10:32:38;;;;;;;2.47;1.40;;;26.80;46.00;;;;;;4979440;28;20105;-67
2023/07/18 10:35:13;;;;;;;2.55;1.33;;;26.80;46.00;;;;;;4980151;28;20621;-66
2023/07/18 10:37:50;;;;;;;2.10;1.20;;;26.80;46.00;;;;;;4975693;28;20039;-67
2023/07/18 10:40:40;;;;;;;1.90;1.17;;;26.80;46.00;;;;;;4978509;28;20426;-67
2023/07/18 10:43:10;;;;;;;2.05;1.27;;;26.80;46.00;;;;;;4980317;28;20022;-67
2023/07/18 10:45:41;;;;;;;2.05;1.30;;;26.80;46.00;;;;;;4978612;28;20041;-67
2023/07/18 10:48:14;;;;;;;2.10;1.38;;;26.80;46.00;;;;;;4966280;28;20027;-67
2023/07/18 10:50:41;;;;;;;1.88;1.25;;;26.80;46.00;;;;;;4978104;28;20031;-66
2023/07/18 10:53:18;;;;;;;2.45;1.27;;;26.80;46.00;;;;;;4957927;28;20062;-67
2023/07/18 10:55:45;;;;;;;1.83;1.27;;;26.80;46.10;;;;;;4963246;28;20039;-66
2023/07/18 10:58:20;;;;;;;1.90;1.40;;;26.80;46.10;;;;;;4979159;28;20022;-66
2023/07/18 11:00:47;;;;;;;2.10;1.30;;;26.80;46.10;;;;;;4978578;28;20022;-66
2023/07/18 11:03:23;;;;;;;2.08;1.30;;;26.80;46.10;;;;;;4978031;28;20136;-67
2023/07/18 11:05:51;;;;;;;2.22;1.30;;;26.80;46.10;;;;;;4967999;28;20037;-67
2023/07/18 11:08:27;;;;;;;1.75;1.20;;;26.80;46.10;;;;;;4978196;28;20046;-67
2023/07/18 11:11:03;;;;;;;1.83;1.30;;;26.80;46.10;;;;;;4975653;28;20341;-66
2023/07/18 11:13:34;;;;;;;1.60;1.20;;;26.80;46.10;;;;;;4980520;28;20066;-66
2023/07/18 11:16:11;;;;;;;1.95;1.10;;;26.90;46.20;;;;;;4962443;28;20478;-66
2023/07/18 11:18:38;;;;;;;1.77;1.30;;;26.80;46.10;;;;;;4978055;28;20102;-67
2023/07/18 11:21:05;;;;;;;1.40;1.02;;;26.80;46.10;;;;;;4979053;28;20042;-67
2023/07/18 11:23:32;;;;;;;2.10;1.30;;;26.80;46.10;;;;;;4976398;28;20026;-66
2023/07/18 11:25:58;;;;;;;2.72;1.40;;;26.80;46.60;;;;;;4983230;28;20380;-66
2023/07/18 11:28:33;;;;;;;1.70;1.05;;;26.80;46.10;;;;;;4982511;28;20086;-67
2023/07/18 11:30:59;;;;;;;2.15;1.40;;;26.80;46.10;;;;;;4972093;28;20038;-67
2023/07/18 11:33:29;;;;;;;2.10;1.10;;;26.80;46.10;;;;;;4983773;28;20462;-67
2023/07/18 11:35:56;;;;;;;1.73;1.10;;;26.80;46.20;;;;;;4981411;28;20035;-66
2023/07/18 11:38:24;;;;;;;1.77;1.23;;;26.80;46.20;;;;;;4981527;28;20093;-67
2023/07/18 11:40:51;;;;;;;1.83;1.23;;;26.90;46.30;;;;;;4966204;28;20085;-67
2023/07/18 11:43:18;;;;;;;2.00;1.35;;;26.90;46.20;;;;;;4981558;28;20069;-67
2023/07/18 11:45:44;;;;;;;1.30;1.10;;;26.90;46.20;;;;;;4981031;28;20037;-67
2023/07/18 11:48:10;;;;;;;1.88;1.27;;;26.90;46.40;;;;;;4980268;28;20887;-67
2023/07/18 11:50:36;;;;;;;1.70;1.17;;;26.90;46.30;;;;;;4982835;28;20058;-67
2023/07/18 11:53:03;;;;;;;1.65;1.13;;;26.90;46.30;;;;;;4980413;28;20739;-68
2023/07/18 11:55:30;;;;;;;1.90;1.20;;;26.90;46.30;;;;;;4981686;28;20061;-67
2023/07/18 11:57:57;;;;;;;1.80;1.20;;;26.90;46.40;;;;;;4982274;28;20038;-67
2023/07/18 12:00:23;;;;;;;2.55;1.20;;;26.90;46.40;;;;;;4981644;28;20089;-67
2023/07/18 12:02:48;;;;;;;2.13;1.20;;;26.90;46.40;;;;;;4981287;28;20022;-67
2023/07/18 12:05:15;;;;;;;1.90;1.30;;;26.90;46.50;;;;;;4981673;28;20080;-67
2023/07/18 12:07:43;;;;;;;1.60;1.10;;;26.90;46.40;;;;;;4962008;28;20030;-67
2023/07/18 12:10:10;;;;;;;1.85;1.20;;;26.90;46.50;;;;;;4984041;28;20029;-67
2023/07/18 12:12:41;;;;;;;1.45;1.05;;;26.90;46.50;;;;;;4980946;28;20085;-67
2023/07/18 12:15:08;;;;;;;1.85;1.20;;;26.90;46.50;;;;;;4982487;28;20436;-67
2023/07/18 12:17:34;;;;;;;2.20;1.17;;;26.90;46.50;;;;;;4977886;28;20082;-67
2023/07/18 12:20:00;;;;;;;1.98;1.10;;;26.90;46.50;;;;;;4980647;28;20461;-67
2023/07/18 12:22:26;;;;;;;1.90;1.25;;;26.90;46.50;;;;;;4979341;28;20026;-67
2023/07/18 12:24:51;;;;;;;1.60;1.20;;;26.90;46.50;;;;;;4979774;28;20077;-67
2023/07/18 12:27:17;;;;;;;1.92;1.25;;;26.90;46.50;;;;;;4980986;28;20497;-67
2023/07/18 12:29:45;;;;;;;1.50;1.17;;;26.90;46.60;;;;;;4982538;28;20545;-67
2023/07/18 12:32:11;;;;;;;1.55;1.17;;;26.90;46.50;;;;;;4981910;28;20080;-67
2023/07/18 12:34:40;;;;;;;1.88;1.30;;;26.90;46.50;;;;;;4981864;28;20052;-67
2023/07/18 12:37:07;;;;;;;2.30;1.27;;;26.90;46.50;;;;;;4979895;28;20059;-67
2023/07/18 12:39:34;;;;;;;1.70;1.20;;;27.00;46.60;;;;;;4979047;28;20030;-67
2023/07/18 12:41:59;;;;;;;2.38;1.30;;;26.90;46.50;;;;;;4963152;28;20122;-67
2023/07/18 12:44:41;;;;;;;1.70;1.25;;;26.90;46.50;;;;;;4966032;28;20113;-67
2023/07/18 12:47:08;;;;;;;1.70;1.10;;;26.90;46.50;;;;;;4972012;28;20070;-67
2023/07/18 12:49:35;;;;;;;2.25;1.20;;;26.90;46.50;;;;;;4980389;28;20045;-67